x

Onslow Bay Outer, Nc (41036) Wave Buoy

3:50pm - Tue 30th Sep 2014 All times are EDT. -4 hours from GMT.

  • Sig Wave height 3.0ft
  • Swell Direction
  • Peak Period 8s
  • Average Period 4s
  • Wind
    16mph, 20mph gusts
  • Sea Temp 80°f
  • Air Temp 75°f
  • Sea Pressure 1009mb
  • Onslow Bay Outer, Nc
  • Onslow Bay Outer, Nc

More Historic Weather Station data

Upgrade to MSW Pro to gain access to the past 30 days of data for over 8000 Wavebouys and Weather Stations around the globe.

Join Pro

Comparision Forecast

View Surf forecast
   
Tue 09/30 3:50pm 3ft 8s 4s 16 20 mph 1009mb 80f 75f
3:20pm  -   -   -  16 22 mph 1009.1mb 80f 75f
2:50pm 3ft 4s 4s 16 20 mph 1009.1mb 80f 75f
2:20pm  -   -   -  16 20 mph 1009.5mb 80f 74f
1:50pm 3ft 5s 4s 16 18 mph 1010mb 80f 74f
1:20pm  -   -   -  18 20 mph 1010.4mb 80f 74f
12:50pm 3.5ft 5s 4s 18 20 mph 1010.6mb 80f 73f
12:20pm  -   -   -  18 20 mph 1010.8mb 80f 73f
11:50am 3.5ft 5s 4s 18 20 mph 1010.9mb 80f 72f
11:20am  -   -   -  18 20 mph 1011mb 80f 72f
10:50am 3ft 4s 4s 18 22 mph 1011.1mb 80f 72f
10:20am  -   -   -  16 20 mph 1011.2mb 80f 72f
9:50am 3.5ft 5s 4s 18 20 mph 1011.2mb 80f 72f
9:20am  -   -   -  18 20 mph 1011.2mb 80f 73f
8:50am 3.5ft 5s 4s 20 22 mph 1011.1mb 80f 73f
8:20am  -   -   -  18 22 mph 1011.1mb 80f 73f
7:50am 3ft 5s 4s 16 18 mph 1011.1mb 80f 73f
7:20am  -   -   -  16 18 mph 1010.9mb 80f 73f
6:50am 3.5ft 5s 4s 16 20 mph 1010.7mb 80f 73f
6:20am  -   -   -  16 20 mph 1010.8mb 80f 73f
5:50am 3ft 4s 4s 16 20 mph 1010.6mb 80f 73f
5:20am  -   -   -  16 20 mph 1010.6mb 80f 73f
4:50am 3.5ft 4s 4s 18 20 mph 1010.8mb 80f 73f
4:20am  -   -   -  18 20 mph 1010.8mb 80f 73f
3:50am 3ft 5s 4s 18 20 mph 1010.9mb 80f 73f
3:20am  -   -   -  16 20 mph 1011mb 80f 73f
2:50am 3ft 8s 4s 18 22 mph 1011.3mb 80f 73f
2:20am  -   -   -  16 20 mph 1011.8mb 80f 72f
1:50am 3ft 4s 4s 18 22 mph 1011.8mb 80f 73f
1:20am  -   -   -  16 18 mph 1012mb 80f 73f
12:50am 3ft 8s 4s 16 18 mph 1012mb 80f 73f
12:20am  -   -   -  16 18 mph 1012.4mb 80f 73f
Mon 09/29 11:50pm 3ft 8s 4s 13 20 mph 1012.7mb 80f 73f
11:20pm  -   -   -  16 18 mph 1012.7mb 80f 73f
10:50pm 3ft 8s 4s 16 18 mph 1012.9mb 80f 73f
10:20pm  -   -   -  13 18 mph 1013.2mb 80f 73f
9:50pm 2.5ft 8s 4s 16 20 mph 1013.2mb 80f 73f
9:20pm  -   -   -  16 18 mph 1013.2mb 80f 73f
8:50pm 2.5ft 8s 4s 16 20 mph 1013.1mb 80f 74f
8:20pm  -   -   -  16 20 mph 1013.3mb 80f 74f
7:50pm 2.5ft 8s 5s 13 16 mph 1013.3mb 80f 75f
7:20pm  -   -   -  11 13 mph 1013.6mb 80f 75f
6:50pm 2.5ft 8s 4s 11 13 mph 1013.6mb 80f 75f
6:20pm  -   -   -  13 16 mph 1013.4mb 80f 75f
5:50pm 2.5ft 8s 4s 13 16 mph 1013.2mb 80f 75f
5:20pm  -   -   -  13 16 mph 1013.2mb 80f 75f
4:50pm 2.5ft 8s 4s 13 18 mph 1012.8mb 80f 75f
4:20pm  -   -   -  13 16 mph 1013.1mb 80f 75f
3:50pm 2.5ft 8s 4s 13 18 mph 1013.2mb 80f 75f
3:20pm  -   -   -  13 16 mph 1013.3mb 80f 75f
2:50pm 2.5ft 7s 4s 13 18 mph 1013.2mb 80f 75f
2:20pm  -   -   -  11 16 mph 1013.6mb 80f 75f
1:50pm 2.5ft 8s 4s 13 16 mph 1013.8mb 80f 75f
1:20pm  -   -   -  13 16 mph 1014.1mb 80f 75f
12:50pm 2.5ft 9s 5s 11 16 mph 1014.6mb 80f 75f
12:20pm  -   -   -  13 16 mph 1014.7mb 80f 75f
11:50am 2.5ft 7s 5s 11 13 mph 1015mb 80f 75f
11:20am  -   -   -  13 16 mph 1015mb 80f 75f
10:50am 2.5ft 8s 5s 11
mph
1015.3mb 80f 75f
10:20am  -   -   -  9 11 mph 1015.2mb 80f 76f
9:50am 2.5ft 6s 5s 11 13 mph 1015.2mb 80f 75f
9:20am  -   -   -  11 13 mph 1015.1mb 80f 75f
8:50am 2.5ft 8s 5s 11 13 mph 1015.1mb 80f 75f
8:20am  -   -   -  11 13 mph 1015.3mb 80f 75f
7:50am 2.5ft 6s 5s 9 11 mph 1015.3mb 80f 75f
7:20am  -   -   -  9 11 mph 1015.3mb 80f 75f
6:50am 2.5ft 7s 5s 9 11 mph 1015.2mb 80f 75f
6:20am  -   -   -  7 9 mph 1015.4mb 80f 75f
5:50am 2.5ft 6s 5s 7 9 mph 1015.3mb 80f 75f
5:20am  -   -   -  9 11 mph 1015mb 80f 75f
4:50am 2.5ft 7s 5s 9 13 mph 1014.8mb 80f 75f
4:20am  -   -   -  9 13 mph 1014.9mb 80f 75f
3:50am 2.5ft 8s 5s 9 11 mph 1015.1mb 80f 75f
3:20am  -   -   -  9 11 mph 1015.4mb 80f 75f
2:50am 3ft 8s 5s 9 11 mph 1015.5mb 80f 75f
2:20am  -   -   -  11 13 mph 1015.8mb 80f 75f
1:50am 2.5ft 8s 6s 11 13 mph 1016.1mb 80f 76f
1:20am  -   -   -  9 11 mph 1016.5mb 80f 76f
12:50am 2.5ft 8s 5s 9 11 mph 1016.7mb 80f 76f
12:20am  -   -   -  9 11 mph 1016.9mb 80f 76f
Sun 09/28 11:50pm 2.5ft 8s 5s 7 11 mph 1017mb 80f 77f
11:20pm  -   -   -  9 11 mph 1017mb 80f 77f
10:50pm 3ft 8s 5s 9 11 mph 1017.2mb 80f 77f
10:20pm  -   -   -  11 13 mph 1017.1mb 81f 77f
9:50pm 3ft 8s 5s 11 13 mph 1017.2mb 81f 77f
9:20pm  -   -   -  13 16 mph 1017.3mb 81f 76f
8:50pm 3ft 8s 5s 11 16 mph 1017.5mb 81f 76f
8:20pm  -   -   -  11 13 mph 1017.6mb 81f 76f
7:50pm 3ft 8s 5s 11 16 mph 1017.4mb 81f 76f
7:20pm  -   -   -  13 16 mph 1017.2mb 81f 76f
6:50pm 3ft 8s 5s 13
mph
1017mb 81f 76f
6:20pm  -   -   -  11 13 mph 1017.1mb 81f 76f
5:50pm 3ft 8s 5s 11 13 mph 1017.1mb 81f 76f
5:20pm  -   -   -  11 13 mph 1017.1mb 81f 76f
4:50pm 3ft 9s 5s 11 13 mph 1017.1mb 81f 76f
4:20pm  -   -   -  11 16 mph 1017.3mb 81f 76f
3:50pm 3.5ft 8s 5s 13 16 mph 1017.5mb 81f 76f
3:20pm  -   -   -  13 16 mph 1017.7mb 81f 76f
2:50pm 3.5ft 9s 5s 11 16 mph 1017.9mb 81f 75f
2:20pm  -   -   -  13 16 mph 1018.1mb 81f 75f
1:50pm 3.5ft 9s 5s 13
mph
1018.6mb 81f 75f
1:20pm  -   -   -  13 18 mph 1018.9mb 81f 75f
12:50pm 3.5ft 8s 5s 13 18 mph 1019.1mb 81f 75f
12:20pm  -   -   -  16 18 mph 1019.4mb 81f 75f
11:50am 3.5ft 4s 5s 16 18 mph 1019.7mb 81f 75f
11:20am  -   -   -  13 18 mph 1019.8mb 81f 75f
10:50am 4ft 8s 5s 16 18 mph 1019.7mb 81f 75f
10:20am  -   -   -  16 20 mph 1019.8mb 81f 75f
9:50am 4ft 8s 5s 18 20 mph 1019.7mb 80f 74f
9:20am  -   -   -  18 20 mph 1019.8mb 80f 74f
8:50am 4ft 5s 5s 18 20 mph 1019.6mb 80f 74f
8:20am  -   -   -  18 22 mph 1019.5mb 80f 74f
7:50am 4ft 4s 5s 18 22 mph 1019.3mb 80f 74f
7:20am  -   -   -  18 20 mph 1019.2mb 80f 74f
6:50am 4.5ft 8s 5s 20 22 mph 1019mb 80f 74f
6:20am  -   -   -  20 25 mph 1018.6mb 80f 74f
5:50am 4ft 7s 5s 20 22 mph 1018.6mb 80f 74f
4:50am 4.5ft 7s 5s 18 20 mph 1018.7mb 80f 74f
4:20am  -   -   -  18 20 mph 1018.7mb 80f 74f
3:50am 4.5ft 7s 5s 16 22 mph 1018.7mb 80f 74f
3:20am  -   -   -  16 20 mph 1018.8mb 80f 74f
2:50am 4.5ft 8s 5s 16 18 mph 1019.1mb 81f 74f
2:20am  -   -   -  16 18 mph 1019.4mb 81f 74f
1:50am 4.5ft 6s 5s 16 20 mph 1019.3mb 81f 75f
1:20am  -   -   -  18 20 mph 1019.1mb 81f 75f
12:50am 4.5ft 6s 5s 18 22 mph 1019.2mb 81f 75f
12:20am  -   -   -  18 22 mph 1019.4mb 81f 75f
Sat 09/27 11:50pm 4.5ft 6s 5s 18 22 mph 1019.6mb 81f 75f
11:20pm  -   -   -  18 22 mph 1019.8mb 81f 75f
10:50pm 4.5ft 6s 5s 20 25 mph 1019.8mb 81f 75f
10:20pm  -   -   -  20 25 mph 1019.7mb 81f 75f
9:50pm 4.5ft 6s 5s 20 25 mph 1019.6mb 81f 75f
9:20pm  -   -   -  18 22 mph 1019.7mb 81f 75f
8:50pm 4.5ft 5s 5s 20 25 mph 1019.1mb 81f 75f
8:20pm  -   -   -  20 25 mph 1019mb 81f 75f
7:50pm 4.5ft 5s 5s 20 25 mph 1018.8mb 81f 75f
7:20pm  -   -   -  20 25 mph 1018.8mb 81f 75f
6:50pm 4.5ft 6s 5s 20 25 mph 1019mb 81f 75f
6:20pm  -   -   -  22 27 mph 1018.6mb 81f 75f
5:50pm 5ft 5s 5s 22 27 mph 1018.6mb 81f 75f
5:20pm  -   -   -  25 27 mph 1018.5mb 81f 75f
4:50pm 5ft 6s 5s 25 29 mph 1018.5mb 80f 75f
4:20pm  -   -   -  25 29 mph 1018.5mb 80f 75f
3:50pm 5ft 6s 5s 25 29 mph 1018.8mb 80f 75f
3:20pm  -   -   -  25 29 mph 1018.8mb 80f 75f
2:50pm 5ft 5s 5s 25 27 mph 1018.8mb 80f 75f
2:20pm  -   -   -  25 29 mph 1018.9mb 80f 75f
1:50pm 5ft 6s 5s 25 29 mph 1019.2mb 80f 74f
1:20pm  -   -   -  25 29 mph 1019.4mb 80f 74f
12:50pm 4.5ft 6s 5s 25 29 mph 1019.6mb 80f 74f
12:20pm  -   -   -  22 27 mph 1019.9mb 80f 74f
11:50am 5ft 5s 5s 22 27 mph 1019.8mb 80f 74f
11:20am  -   -   -  22 25 mph 1019.8mb 80f 74f
10:50am 5ft 8s 5s 22 27 mph 1019.8mb 80f 74f
10:20am  -   -   -  22 27 mph 1019.6mb 80f 74f
9:50am 5ft 5s 5s 22 27 mph 1019.4mb 80f 74f
9:20am  -   -   -  22 27 mph 1019.2mb 80f 73f
8:50am 5ft 5s 5s 20 25 mph 1019.3mb 80f 73f
8:20am  -   -   -  22 27 mph 1018.9mb 80f 73f
7:50am 5ft 5s 5s 22 27 mph 1018.9mb 80f 73f
7:20am  -   -   -  22 27 mph 1018.7mb 80f 73f
6:50am 5ft 6s 5s 22 27 mph 1018.9mb 80f 73f
6:20am  -   -   -  22 27 mph 1018.7mb 80f 73f
5:50am 5ft 6s 5s 22 25 mph 1018.4mb 80f 73f
5:20am  -   -   -  20 27 mph 1018.3mb 80f 73f
4:50am 5ft 5s 5s 22 27 mph 1018.1mb 79f 72f
4:20am  -   -   -  22 27 mph 1018mb 79f 72f
3:50am 5ft 6s 5s 22 27 mph 1018.2mb 80f 72f
3:20am  -   -   -  22 27 mph 1018.2mb 80f 72f
2:50am 5ft 5s 5s 22 27 mph 1018.4mb 80f 72f
2:20am  -   -   -  22 27 mph 1018.7mb 80f 73f
1:50am 5ft 6s 5s 25 29 mph 1018.7mb 80f 72f
1:20am  -   -   -  25 31 mph 1018.6mb 80f 72f
12:50am 5ft 6s 5s 25 29 mph 1018.6mb 80f 72f
12:20am  -   -   -  25 29 mph 1018.9mb 80f 72f
Fri 09/26 11:50pm 5.5ft 6s 5s 25 29 mph 1019.1mb 80f 73f
11:20pm  -   -   -  25 29 mph 1019.3mb 80f 73f
10:50pm 5.5ft 6s 5s 25 27 mph 1019.5mb 80f 73f
10:20pm  -   -   -  25 29 mph 1019.4mb 80f 73f
9:50pm 6ft 6s 5s 25 29 mph 1019mb 80f 73f
9:20pm  -   -   -  25 29 mph 1018.7mb 80f 73f
8:50pm 6ft 6s 5s 25 31 mph 1018.7mb 81f 73f